Time;durP1;ratioP1;P1;durP2;ratioP2;P2;SDS_P1;SDS_P2;PMS_P1;PMS_P2;Temp;Humidity;BMP_temperature;BMP_pressure;BME280_temperature;BME280_humidity;BME280_pressure;Samples;Min_cycle;Max_cycle;Signal;HPM_P1;HPM_P2
2023/03/01 00:00:20;;;;;;;12.40;6.70;;;-2.10;99.90;;;;;;5013951;28;20233;-92
2023/03/01 00:02:46;;;;;;;12.35;7.57;;;-2.20;99.90;;;;;;5013883;28;20211;-92
2023/03/01 00:05:13;;;;;;;11.57;7.00;;;-2.20;99.90;;;;;;5014214;28;20195;-92
2023/03/01 00:07:41;;;;;;;17.52;8.75;;;-2.20;99.90;;;;;;5013499;28;20266;-91
2023/03/01 00:10:10;;;;;;;18.30;8.65;;;-2.20;99.90;;;;;;5009916;28;20220;-91
2023/03/01 00:12:36;;;;;;;10.48;7.53;;;-2.20;99.90;;;;;;5013745;28;20221;-92
2023/03/01 00:15:05;;;;;;;17.23;7.07;;;-2.20;99.90;;;;;;5013896;28;20199;-92
2023/03/01 00:17:31;;;;;;;11.38;7.47;;;-2.30;99.90;;;;;;5013586;28;20179;-92
2023/03/01 00:19:58;;;;;;;9.18;6.97;;;-2.30;99.90;;;;;;5013900;28;20215;-91
2023/03/01 00:22:27;;;;;;;12.07;6.85;;;-2.30;99.90;;;;;;5013384;28;20259;-92
2023/03/01 00:24:55;;;;;;;11.20;7.93;;;-2.40;99.90;;;;;;5009713;28;20274;-91
2023/03/01 00:27:22;;;;;;;11.07;7.47;;;-2.40;99.90;;;;;;5008266;28;20215;-92
2023/03/01 00:29:49;;;;;;;15.10;8.20;;;-2.40;99.90;;;;;;5009599;28;20219;-92
2023/03/01 00:32:16;;;;;;;11.48;7.25;;;-2.40;99.90;;;;;;5009617;28;20744;-91
2023/03/01 00:34:48;;;;;;;8.23;6.68;;;-2.40;99.90;;;;;;5008566;28;20195;-92
2023/03/01 00:37:15;;;;;;;14.25;7.13;;;-2.50;99.90;;;;;;5001978;28;20271;-91
2023/03/01 00:39:42;;;;;;;14.30;7.78;;;-2.50;99.90;;;;;;5001018;28;20215;-91
2023/03/01 00:42:11;;;;;;;11.75;7.82;;;-2.50;99.90;;;;;;5002175;28;20234;-91
2023/03/01 00:44:38;;;;;;;11.10;6.18;;;-2.50;99.90;;;;;;5002759;28;20262;-92
2023/03/01 00:47:05;;;;;;;9.88;6.53;;;-2.50;99.90;;;;;;5003067;28;20215;-91
2023/03/01 00:49:31;;;;;;;10.18;7.70;;;-2.50;99.90;;;;;;5011010;28;20294;-91
2023/03/01 00:51:58;;;;;;;9.63;6.53;;;-2.50;99.90;;;;;;5013438;28;20354;-91
2023/03/01 00:54:25;;;;;;;14.07;6.15;;;-2.50;99.90;;;;;;5013182;28;20260;-91
2023/03/01 00:56:52;;;;;;;7.80;5.30;;;-2.50;99.90;;;;;;5013283;28;20255;-93
2023/03/01 00:59:20;;;;;;;11.20;6.43;;;-2.50;99.90;;;;;;5013271;28;20215;-94
2023/03/01 01:01:47;;;;;;;11.13;7.32;;;-2.50;99.90;;;;;;5011254;28;20209;-93
2023/03/01 01:04:15;;;;;;;7.93;5.78;;;-2.60;99.90;;;;;;5002043;28;20215;-90
2023/03/01 01:06:44;;;;;;;11.25;6.53;;;-2.60;99.90;;;;;;5001770;28;20282;-93
2023/03/01 01:09:16;;;;;;;9.40;5.80;;;-2.60;99.90;;;;;;5007530;28;20257;-93
2023/03/01 01:11:44;;;;;;;10.50;6.25;;;-2.60;99.90;;;;;;5007427;28;20207;-92
2023/03/01 01:14:11;;;;;;;9.32;6.28;;;-2.60;99.90;;;;;;5006708;28;20217;-92
2023/03/01 01:16:39;;;;;;;7.65;6.00;;;-2.60;99.90;;;;;;5012534;28;20187;-93
2023/03/01 01:19:07;;;;;;;7.68;5.25;;;-2.70;99.90;;;;;;5012992;28;20270;-93
2023/03/01 01:21:33;;;;;;;9.07;5.63;;;-2.70;99.90;;;;;;5012969;28;20187;-92
2023/03/01 01:24:00;;;;;;;9.90;5.78;;;-2.70;99.90;;;;;;5011096;28;20195;-92
2023/03/01 01:26:30;;;;;;;10.65;6.85;;;-2.70;99.90;;;;;;5012325;28;20187;-92
2023/03/01 01:28:57;;;;;;;9.70;6.05;;;-2.70;99.90;;;;;;5013003;28;20199;-93
2023/03/01 01:31:25;;;;;;;6.72;5.43;;;-2.70;99.90;;;;;;5012925;28;20188;-93
2023/03/01 01:33:53;;;;;;;11.35;6.50;;;-2.70;99.90;;;;;;5012972;28;20179;-93
2023/03/01 01:36:21;;;;;;;11.32;6.38;;;-2.80;99.90;;;;;;5008356;28;20210;-91
2023/03/01 01:38:48;;;;;;;11.65;6.05;;;-2.80;99.90;;;;;;4980964;28;20591;-92
2023/03/01 01:41:15;;;;;;;14.25;7.05;;;-2.70;99.90;;;;;;4976246;28;20222;-94
2023/03/01 01:43:44;;;;;;;8.52;5.47;;;-2.80;99.90;;;;;;4982854;28;20215;-93
2023/03/01 01:46:25;;;;;;;8.75;5.90;;;-2.80;99.90;;;;;;4973761;28;20591;-92
2023/03/01 01:48:58;;;;;;;10.10;5.75;;;-2.80;99.90;;;;;;4974624;28;20212;-91
2023/03/01 01:51:29;;;;;;;9.73;6.00;;;-2.80;99.90;;;;;;4986107;28;20212;-93
2023/03/01 01:53:59;;;;;;;10.75;6.90;;;-2.70;99.90;;;;;;4977345;28;20559;-92
2023/03/01 01:56:30;;;;;;;8.55;5.70;;;-2.80;99.90;;;;;;4980144;28;20204;-92
2023/03/01 01:58:57;;;;;;;10.05;7.13;;;-2.80;99.90;;;;;;4983498;28;20322;-93
2023/03/01 02:01:25;;;;;;;9.88;6.95;;;-2.80;99.90;;;;;;4985031;28;20224;-93
2023/03/01 02:03:52;;;;;;;11.80;6.55;;;-2.70;99.90;;;;;;4976323;28;20208;-91
2023/03/01 02:06:28;;;;;;;10.73;6.55;;;-2.60;99.90;;;;;;4961846;28;20445;-91
2023/03/01 02:08:58;;;;;;;10.60;6.10;;;-2.60;99.90;;;;;;4960207;28;20228;-91
2023/03/01 02:11:26;;;;;;;11.45;7.38;;;-2.50;99.90;;;;;;4961845;28;20213;-91
2023/03/01 02:13:54;;;;;;;10.05;5.90;;;-2.40;99.90;;;;;;4965310;28;20204;-91
2023/03/01 02:16:22;;;;;;;8.40;6.05;;;-2.30;99.90;;;;;;4966691;28;20299;-91
2023/03/01 02:18:50;;;;;;;8.57;6.32;;;-2.10;99.90;;;;;;5049414;22;20310;-68
2023/03/01 02:21:30;;;;;;;14.68;7.15;;;-2.00;99.90;;;;;;5093633;28;20242;-68
2023/03/01 02:23:58;;;;;;;15.60;7.32;;;-1.90;99.90;;;;;;5093526;28;20200;-68
2023/03/01 02:26:34;;;;;;;11.57;7.05;;;-1.80;99.90;;;;;;5093458;28;20196;-68
2023/03/01 02:29:02;;;;;;;10.63;7.13;;;-1.80;99.90;;;;;;5065196;28;20204;-68
2023/03/01 02:31:43;;;;;;;10.02;7.68;;;-1.70;99.90;;;;;;5064548;28;20204;-68
2023/03/01 02:34:12;;;;;;;11.50;6.82;;;-1.70;99.90;;;;;;5072805;28;20287;-68
2023/03/01 02:36:44;;;;;;;11.02;8.00;;;-1.60;99.90;;;;;;5056199;28;20209;-68
2023/03/01 02:39:17;;;;;;;8.95;6.20;;;-1.50;99.90;;;;;;5066437;28;20205;-68
2023/03/01 02:41:47;;;;;;;10.10;7.15;;;-1.50;99.90;;;;;;5069030;28;20205;-68
2023/03/01 02:44:15;;;;;;;8.13;5.97;;;-1.40;99.90;;;;;;5052326;28;20572;-68
2023/03/01 02:46:48;;;;;;;11.02;7.68;;;-1.40;99.90;;;;;;5060761;28;23035;-68
2023/03/01 02:49:24;;;;;;;8.48;6.40;;;-1.30;99.90;;;;;;5053072;28;20208;-68
2023/03/01 02:52:09;;;;;;;9.40;6.95;;;-1.30;99.90;;;;;;5060967;28;20609;-68
2023/03/01 02:54:42;;;;;;;11.77;7.75;;;-1.30;99.90;;;;;;5070480;28;20228;-68
2023/03/01 02:57:09;;;;;;;12.38;6.90;;;-1.30;99.90;;;;;;5072927;28;20226;-68
2023/03/01 02:59:40;;;;;;;11.05;6.78;;;-1.30;99.90;;;;;;5072393;28;20554;-68
2023/03/01 03:02:07;;;;;;;11.32;7.10;;;-1.20;99.90;;;;;;5072714;28;20201;-68
2023/03/01 03:04:34;;;;;;;10.63;7.47;;;-1.20;99.90;;;;;;5071925;28;20204;-68
2023/03/01 03:07:00;;;;;;;11.85;7.88;;;-1.20;99.90;;;;;;5072684;28;20228;-68
2023/03/01 03:09:28;;;;;;;10.93;7.38;;;-1.20;99.90;;;;;;5072286;28;20587;-68
2023/03/01 03:11:54;;;;;;;9.45;7.10;;;-1.20;99.90;;;;;;5072394;28;20196;-68
2023/03/01 03:14:21;;;;;;;12.93;6.40;;;-1.20;99.90;;;;;;5071905;28;20625;-68
2023/03/01 03:16:51;;;;;;;8.57;6.45;;;-1.10;99.90;;;;;;5071947;28;20307;-68
2023/03/01 03:19:19;;;;;;;11.10;6.75;;;-1.10;99.90;;;;;;5072359;28;20215;-68
2023/03/01 03:21:45;;;;;;;10.82;6.72;;;-1.00;99.90;;;;;;5071941;28;20220;-68
2023/03/01 03:24:12;;;;;;;8.10;7.10;;;-1.00;99.90;;;;;;5071899;28;20279;-68
2023/03/01 03:26:39;;;;;;;11.50;7.18;;;-1.00;99.90;;;;;;5071813;28;20208;-68
2023/03/01 03:29:06;;;;;;;8.25;6.35;;;-0.90;99.90;;;;;;5072418;28;20196;-68
2023/03/01 03:31:32;;;;;;;7.25;5.60;;;-1.00;99.90;;;;;;5071651;28;20203;-69
2023/03/01 03:34:00;;;;;;;11.25;7.32;;;-1.00;99.90;;;;;;5071783;28;20551;-68
2023/03/01 03:36:27;;;;;;;13.80;7.18;;;-1.00;99.90;;;;;;5071787;28;20215;-68
2023/03/01 03:38:54;;;;;;;12.32;8.68;;;-1.00;99.90;;;;;;5071940;28;20285;-68
2023/03/01 03:41:21;;;;;;;13.35;6.85;;;-1.00;99.90;;;;;;5071912;28;20212;-68
2023/03/01 03:43:48;;;;;;;9.13;7.00;;;-1.00;99.90;;;;;;5071125;28;20205;-68
2023/03/01 03:46:16;;;;;;;19.48;8.82;;;-0.90;99.90;;;;;;5071804;28;20208;-68
2023/03/01 03:48:45;;;;;;;10.32;6.45;;;-0.90;99.90;;;;;;5071423;28;20585;-68
2023/03/01 03:51:14;;;;;;;10.95;8.23;;;-0.90;99.90;;;;;;5071976;28;20581;-68
2023/03/01 03:53:42;;;;;;;13.38;6.82;;;-0.90;99.90;;;;;;5070959;28;20209;-68
2023/03/01 03:56:09;;;;;;;11.45;7.45;;;-0.90;99.90;;;;;;5071796;28;20200;-68
2023/03/01 03:58:36;;;;;;;11.50;7.22;;;-0.90;99.90;;;;;;5071297;28;20219;-68
2023/03/01 04:01:03;;;;;;;11.52;7.10;;;-0.90;99.90;;;;;;5071594;28;20212;-68
2023/03/01 04:03:31;;;;;;;14.77;7.78;;;-0.90;99.90;;;;;;5070968;28;20199;-68
2023/03/01 04:05:58;;;;;;;11.63;7.78;;;-0.90;99.90;;;;;;5071488;28;20196;-68
2023/03/01 04:08:27;;;;;;;13.23;7.97;;;-0.80;99.90;;;;;;5071727;28;20220;-68
2023/03/01 04:10:59;;;;;;;14.90;7.22;;;-0.80;99.90;;;;;;5071229;28;20200;-68
2023/03/01 04:13:26;;;;;;;11.77;7.47;;;-0.80;99.90;;;;;;5070993;28;20196;-68
2023/03/01 04:15:54;;;;;;;10.95;7.07;;;-0.80;99.90;;;;;;5051269;28;20201;-68
2023/03/01 04:18:23;;;;;;;13.40;7.50;;;-0.80;99.90;;;;;;5051298;28;20221;-68
2023/03/01 04:20:51;;;;;;;10.25;6.30;;;-0.80;99.90;;;;;;5061972;28;20335;-68
2023/03/01 04:23:20;;;;;;;11.88;6.97;;;-0.80;99.90;;;;;;5062603;28;20228;-68
2023/03/01 04:25:53;;;;;;;10.32;6.90;;;-0.80;99.90;;;;;;5071125;28;20308;-68
2023/03/01 04:28:20;;;;;;;12.20;7.40;;;-0.80;99.90;;;;;;5071053;28;20250;-68
2023/03/01 04:30:47;;;;;;;15.82;8.20;;;-0.70;99.90;;;;;;5065244;28;20204;-68
2023/03/01 04:33:14;;;;;;;11.70;6.55;;;-0.70;99.90;;;;;;5073585;28;20196;-69
2023/03/01 04:35:41;;;;;;;13.43;7.93;;;-0.70;99.90;;;;;;5066093;28;20197;-68
2023/03/01 04:38:08;;;;;;;10.18;8.00;;;-0.70;99.90;;;;;;5068970;28;20600;-68
2023/03/01 04:40:35;;;;;;;16.15;9.18;;;-0.70;99.90;;;;;;5068004;28;20295;-68
2023/03/01 04:43:04;;;;;;;8.82;7.25;;;-0.70;99.90;;;;;;5069150;28;20208;-68
2023/03/01 04:45:34;;;;;;;11.82;7.82;;;-0.70;99.90;;;;;;5070353;28;20258;-69
2023/03/01 04:48:01;;;;;;;12.77;8.07;;;-0.70;99.90;;;;;;5068828;28;20216;-69
2023/03/01 04:50:27;;;;;;;15.32;9.00;;;-0.60;99.90;;;;;;5070881;28;20200;-69
2023/03/01 04:52:58;;;;;;;11.75;6.95;;;-0.60;99.90;;;;;;5068935;28;20651;-69
2023/03/01 04:55:25;;;;;;;10.77;7.38;;;-0.60;99.90;;;;;;5069736;28;20203;-69
2023/03/01 04:57:52;;;;;;;10.77;7.70;;;-0.60;99.90;;;;;;5068654;28;20227;-69
2023/03/01 05:00:21;;;;;;;9.32;7.28;;;-0.60;99.90;;;;;;5069230;28;20620;-69
2023/03/01 05:02:52;;;;;;;10.70;7.65;;;-0.60;99.90;;;;;;5068431;28;20211;-69
2023/03/01 05:05:21;;;;;;;13.85;7.97;;;-0.60;99.90;;;;;;5068701;28;20254;-69
2023/03/01 05:07:48;;;;;;;10.05;7.45;;;-0.60;99.90;;;;;;5068829;28;20227;-69
2023/03/01 05:10:14;;;;;;;9.32;6.63;;;-0.50;99.90;;;;;;5068603;28;20215;-69
2023/03/01 05:12:41;;;;;;;13.63;7.13;;;-0.50;99.90;;;;;;5068480;28;20197;-69
2023/03/01 05:15:09;;;;;;;11.15;7.35;;;-0.50;99.90;;;;;;5069228;28;20199;-69
2023/03/01 05:17:37;;;;;;;12.52;7.40;;;-0.50;99.90;;;;;;5060928;28;20220;-69
2023/03/01 05:20:07;;;;;;;14.25;9.25;;;-0.60;99.90;;;;;;5049853;28;20455;-68
2023/03/01 05:22:34;;;;;;;12.07;7.75;;;-0.60;99.90;;;;;;5058173;28;20227;-69
2023/03/01 05:25:01;;;;;;;13.45;6.93;;;-0.60;99.90;;;;;;5057596;28;20192;-69
2023/03/01 05:27:27;;;;;;;10.93;8.07;;;-0.50;99.90;;;;;;5060944;28;20219;-68
2023/03/01 05:29:54;;;;;;;12.73;8.00;;;-0.50;99.90;;;;;;5068699;28;20199;-67
2023/03/01 05:32:21;;;;;;;15.40;8.60;;;-0.50;99.90;;;;;;5067545;28;20207;-67
2023/03/01 05:34:49;;;;;;;12.02;7.75;;;-0.50;99.90;;;;;;5066974;28;20291;-67
2023/03/01 05:37:19;;;;;;;15.43;8.27;;;-0.50;99.90;;;;;;5067495;28;20223;-67
2023/03/01 05:39:46;;;;;;;16.52;8.57;;;-0.50;99.90;;;;;;5064799;28;20262;-67
2023/03/01 05:42:12;;;;;;;14.10;8.10;;;-0.50;99.90;;;;;;5053192;28;20224;-68
2023/03/01 05:44:40;;;;;;;11.93;7.50;;;-0.50;99.90;;;;;;5065645;28;20200;-69
2023/03/01 05:47:06;;;;;;;10.38;7.50;;;-0.40;99.90;;;;;;5069092;28;20557;-67
2023/03/01 05:49:33;;;;;;;10.38;6.93;;;-0.40;99.90;;;;;;5072705;28;20192;-67
2023/03/01 05:52:01;;;;;;;11.50;7.65;;;-0.40;99.90;;;;;;5053995;28;20200;-67
2023/03/01 05:54:28;;;;;;;13.55;7.60;;;-0.30;99.90;;;;;;5069889;28;20204;-67
2023/03/01 05:56:56;;;;;;;13.38;7.93;;;-0.40;99.90;;;;;;5073575;28;20220;-67
2023/03/01 05:59:22;;;;;;;11.70;7.93;;;-0.30;99.90;;;;;;5074224;28;20287;-67
2023/03/01 06:01:49;;;;;;;13.70;9.23;;;-0.30;99.90;;;;;;5073576;28;20239;-67
2023/03/01 06:04:16;;;;;;;13.45;7.97;;;-0.30;99.90;;;;;;5073632;28;20196;-69
2023/03/01 06:06:43;;;;;;;15.90;9.13;;;-0.20;99.90;;;;;;5073415;28;20196;-68
2023/03/01 06:09:11;;;;;;;14.70;8.85;;;-0.20;99.90;;;;;;5074188;28;20567;-68
2023/03/01 06:11:38;;;;;;;12.65;8.63;;;-0.30;99.90;;;;;;5073658;28;20192;-68
2023/03/01 06:14:06;;;;;;;13.68;8.25;;;-0.20;99.90;;;;;;5060547;28;20197;-68
2023/03/01 06:16:33;;;;;;;13.75;7.63;;;-0.20;99.90;;;;;;5069988;28;20279;-69
2023/03/01 06:18:59;;;;;;;13.10;8.82;;;-0.20;99.90;;;;;;5073418;28;20572;-68
2023/03/01 06:21:26;;;;;;;10.40;8.00;;;-0.20;99.90;;;;;;5073550;28;20208;-68
2023/03/01 06:23:53;;;;;;;13.60;7.72;;;-0.20;99.90;;;;;;5072595;28;20575;-68
2023/03/01 06:26:21;;;;;;;14.40;7.70;;;-0.20;99.90;;;;;;5073598;28;20200;-68
2023/03/01 06:28:48;;;;;;;13.15;7.95;;;-0.20;99.90;;;;;;5072958;28;20594;-68
2023/03/01 06:31:14;;;;;;;10.48;8.38;;;-0.10;99.90;;;;;;5073480;28;20196;-68
2023/03/01 06:33:41;;;;;;;12.68;8.23;;;-0.10;99.90;;;;;;5072745;28;20201;-68
2023/03/01 06:36:09;;;;;;;14.10;8.35;;;-0.10;99.90;;;;;;5073413;28;20204;-68
2023/03/01 06:38:36;;;;;;;15.07;9.13;;;0.00;99.90;;;;;;5065029;28;20240;-68
2023/03/01 06:41:03;;;;;;;11.50;7.72;;;-0.10;99.90;;;;;;5064959;28;20213;-68
2023/03/01 06:43:31;;;;;;;11.55;7.97;;;0.00;99.90;;;;;;5072857;28;20257;-68
2023/03/01 06:45:58;;;;;;;12.98;9.20;;;0.00;99.90;;;;;;5072865;28;20208;-68
2023/03/01 06:48:25;;;;;;;10.07;8.18;;;0.10;99.90;;;;;;5073174;28;20703;-68
2023/03/01 06:50:51;;;;;;;15.02;8.85;;;0.20;99.90;;;;;;5070278;28;20204;-68
2023/03/01 06:53:18;;;;;;;14.85;8.77;;;0.20;99.90;;;;;;5066394;28;20197;-68
2023/03/01 06:55:45;;;;;;;11.70;8.20;;;0.20;99.90;;;;;;5072589;28;20716;-68
2023/03/01 06:58:11;;;;;;;11.13;8.13;;;0.30;99.90;;;;;;5073189;28;20223;-68
2023/03/01 07:00:40;;;;;;;11.60;7.63;;;0.40;99.90;;;;;;5072450;28;20270;-68
2023/03/01 07:03:07;;;;;;;12.65;8.07;;;0.40;99.90;;;;;;5072110;28;20231;-68
2023/03/01 07:05:34;;;;;;;15.20;9.80;;;0.50;99.90;;;;;;5073061;28;20257;-68
2023/03/01 07:08:01;;;;;;;14.82;9.60;;;0.60;99.90;;;;;;5072588;28;20397;-68
2023/03/01 07:10:27;;;;;;;17.92;9.00;;;0.60;99.90;;;;;;5072536;28;20200;-68
2023/03/01 07:12:56;;;;;;;11.23;7.57;;;0.60;99.90;;;;;;5072316;28;20254;-67
2023/03/01 07:15:22;;;;;;;12.73;8.18;;;0.70;99.90;;;;;;5072871;28;20192;-68
2023/03/01 07:17:50;;;;;;;10.45;7.05;;;0.80;99.90;;;;;;5072089;28;20711;-68
2023/03/01 07:20:18;;;;;;;15.35;8.93;;;1.10;99.90;;;;;;5072782;28;20258;-68
2023/03/01 07:22:44;;;;;;;15.25;8.77;;;1.50;99.90;;;;;;5072171;28;20287;-68
2023/03/01 07:25:11;;;;;;;13.05;8.43;;;2.10;99.90;;;;;;5072352;28;20207;-68
2023/03/01 07:27:38;;;;;;;10.65;8.90;;;2.70;99.90;;;;;;5072683;28;20224;-68
2023/03/01 07:30:06;;;;;;;14.07;9.02;;;3.50;99.90;;;;;;5064156;28;20196;-70
2023/03/01 07:32:33;;;;;;;11.70;8.88;;;4.20;99.90;;;;;;5072264;28;20617;-68
2023/03/01 07:35:01;;;;;;;10.23;8.65;;;4.70;99.50;;;;;;5072018;28;20208;-69
2023/03/01 07:37:27;;;;;;;14.50;7.97;;;5.20;98.70;;;;;;5072645;28;20221;-69
2023/03/01 07:39:54;;;;;;;12.55;8.48;;;5.80;97.80;;;;;;5072546;28;20201;-68
2023/03/01 07:42:21;;;;;;;11.88;7.90;;;6.10;97.20;;;;;;5069236;28;20730;-70
2023/03/01 07:44:48;;;;;;;11.75;8.40;;;6.40;96.10;;;;;;5068802;28;20238;-68
2023/03/01 07:47:15;;;;;;;11.70;8.40;;;6.80;95.40;;;;;;5072228;28;20216;-69
2023/03/01 07:49:42;;;;;;;11.15;7.63;;;6.80;95.10;;;;;;5054587;28;20201;-69
2023/03/01 07:52:12;;;;;;;12.95;8.68;;;7.20;95.10;;;;;;5070294;28;20201;-70
2023/03/01 07:54:40;;;;;;;12.27;9.18;;;7.50;94.60;;;;;;5070367;28;20204;-68
2023/03/01 07:57:07;;;;;;;10.45;7.88;;;7.70;93.80;;;;;;5063040;28;20306;-67
2023/03/01 07:59:34;;;;;;;11.40;9.10;;;8.30;93.70;;;;;;5071545;28;20204;-69
2023/03/01 08:02:01;;;;;;;12.02;8.68;;;8.80;92.80;;;;;;5070569;28;20461;-67
2023/03/01 08:04:28;;;;;;;13.50;9.60;;;9.00;92.30;;;;;;5070429;28;20622;-69
2023/03/01 08:06:56;;;;;;;13.13;8.35;;;8.90;92.10;;;;;;5070755;28;20224;-69
2023/03/01 08:09:24;;;;;;;12.00;9.35;;;8.70;92.00;;;;;;5071198;28;20232;-68
2023/03/01 08:11:51;;;;;;;15.48;9.32;;;8.90;91.80;;;;;;5070772;28;20200;-67
2023/03/01 08:14:18;;;;;;;12.07;9.40;;;9.20;91.60;;;;;;5070767;28;20196;-68
2023/03/01 08:16:45;;;;;;;13.88;9.80;;;9.50;91.20;;;;;;5070501;28;20204;-68
2023/03/01 08:19:12;;;;;;;17.33;9.20;;;9.50;90.80;;;;;;5054939;28;20670;-68
2023/03/01 08:21:39;;;;;;;11.65;9.13;;;10.00;90.50;;;;;;5070347;28;20660;-67
2023/03/01 08:24:07;;;;;;;11.82;9.48;;;10.20;89.90;;;;;;5069263;28;20209;-69
2023/03/01 08:26:35;;;;;;;13.20;9.70;;;10.80;88.30;;;;;;5069901;28;20267;-68
2023/03/01 08:29:02;;;;;;;12.30;9.65;;;10.70;88.00;;;;;;5069447;28;20204;-68
2023/03/01 08:31:32;;;;;;;10.98;8.63;;;10.80;87.10;;;;;;5069671;28;20192;-69
2023/03/01 08:34:00;;;;;;;13.05;10.02;;;11.30;86.50;;;;;;5068726;28;20204;-69
2023/03/01 08:36:29;;;;;;;13.57;9.57;;;11.60;85.10;;;;;;5069549;28;20202;-69
2023/03/01 08:38:56;;;;;;;12.00;9.20;;;11.70;85.00;;;;;;5069043;28;20232;-69
2023/03/01 08:41:23;;;;;;;12.30;9.80;;;11.50;85.00;;;;;;5069387;28;20204;-70
2023/03/01 08:43:52;;;;;;;12.38;9.70;;;12.10;83.40;;;;;;5056199;22;20238;-93
2023/03/01 08:46:19;;;;;;;12.52;9.68;;;12.80;82.50;;;;;;5032979;28;20198;-93
2023/03/01 08:48:46;;;;;;;12.55;8.70;;;12.90;81.30;;;;;;5029710;28;20199;-93
2023/03/01 08:51:16;;;;;;;15.40;8.80;;;12.80;82.00;;;;;;5043117;28;20190;-93
2023/03/01 08:53:43;;;;;;;15.03;10.40;;;12.90;81.80;;;;;;5037163;28;20537;-93
2023/03/01 08:56:11;;;;;;;13.17;11.73;;;12.90;81.40;;;;;;5031878;28;20461;-93
2023/03/01 08:58:39;;;;;;;14.38;9.40;;;13.30;80.10;;;;;;5033662;28;20463;-94
2023/03/01 09:01:10;;;;;;;13.13;10.20;;;13.80;78.70;;;;;;5031481;28;20182;-94
2023/03/01 09:03:37;;;;;;;13.30;11.00;;;14.00;79.20;;;;;;5026635;28;20516;-91
2023/03/01 09:06:07;;;;;;;10.63;8.77;;;14.10;77.20;;;;;;5032145;28;20544;-95
2023/03/01 09:08:35;;;;;;;14.17;11.00;;;14.40;76.20;;;;;;5034171;28;20465;-93
2023/03/01 09:11:04;;;;;;;14.10;10.40;;;14.70;76.20;;;;;;5034300;28;20458;-94
2023/03/01 09:13:32;;;;;;;12.40;9.87;;;14.70;76.00;;;;;;5033795;28;20465;-94
2023/03/01 09:15:58;;;;;;;12.57;10.43;;;14.80;74.50;;;;;;5033417;28;20442;-94
2023/03/01 09:18:27;;;;;;;12.20;9.27;;;14.60;74.70;;;;;;5032170;28;20472;-93
2023/03/01 09:20:55;;;;;;;15.30;10.70;;;14.30;74.90;;;;;;5033360;28;20461;-93
2023/03/01 09:23:22;;;;;;;15.80;11.47;;;14.40;75.00;;;;;;5032810;28;20507;-92
2023/03/01 09:25:49;;;;;;;11.90;10.00;;;14.70;73.80;;;;;;5030698;28;20464;-93
2023/03/01 09:28:16;;;;;;;10.07;8.40;;;15.50;73.40;;;;;;5029969;28;20480;-92
2023/03/01 09:30:43;;;;;;;13.63;9.37;;;15.90;72.60;;;;;;5030965;28;20453;-92
2023/03/01 09:33:14;;;;;;;13.60;9.10;;;16.00;72.10;;;;;;5045943;28;20970;-93
2023/03/01 09:35:46;;;;;;;11.13;8.77;;;16.20;71.60;;;;;;5104581;28;20461;-93
2023/03/01 09:38:13;;;;;;;13.33;9.67;;;15.60;71.10;;;;;;5008239;28;20467;-93
2023/03/01 09:40:46;;;;;;;11.70;10.00;;;14.70;72.60;;;;;;4991216;28;20518;-94
2023/03/01 09:43:21;;;;;;;12.57;9.80;;;14.70;72.80;;;;;;4990622;28;20482;-92
2023/03/01 09:45:50;;;;;;;12.57;9.13;;;14.50;73.50;;;;;;5013869;28;20517;-94
2023/03/01 09:48:21;;;;;;;9.90;8.90;;;14.30;73.30;;;;;;5117392;28;20481;-95
2023/03/01 09:50:53;;;;;;;10.93;8.70;;;14.40;73.80;;;;;;5116339;28;20461;-95
2023/03/01 09:54:08;;;;;;;13.80;10.70;;;14.50;74.50;;;;;;5112609;28;20477;-94
2023/03/01 09:56:40;;;;;;;12.13;10.20;;;14.70;71.80;;;;;;4994059;28;20439;-94
2023/03/01 09:59:21;;;;;;;11.67;8.83;;;14.60;71.70;;;;;;4993802;28;20469;-95
2023/03/01 10:01:54;;;;;;;13.40;9.10;;;14.80;72.90;;;;;;4993512;28;20446;-95
2023/03/01 10:04:31;;;;;;;11.30;9.10;;;15.40;71.40;;;;;;4992352;28;20455;-94
2023/03/01 10:07:22;;;;;;;9.83;8.83;;;16.10;69.80;;;;;;4993213;28;20467;-95
2023/03/01 10:09:49;;;;;;;11.67;9.30;;;16.30;70.80;;;;;;4991917;28;20462;-95
2023/03/01 10:12:19;;;;;;;10.77;9.47;;;16.80;69.30;;;;;;5001352;28;20483;-94
2023/03/01 10:14:54;;;;;;;12.20;9.50;;;17.80;68.70;;;;;;5102431;28;20481;-94
2023/03/01 10:17:28;;;;;;;10.17;8.53;;;17.90;67.50;;;;;;5102008;28;20469;-95
2023/03/01 10:19:59;;;;;;;11.60;9.27;;;17.20;67.90;;;;;;5103265;28;20445;-95
2023/03/01 10:22:31;;;;;;;11.57;9.33;;;17.30;67.70;;;;;;5012275;28;20525;-94
2023/03/01 10:25:00;;;;;;;10.27;9.17;;;16.90;67.80;;;;;;5022147;28;20453;-95
2023/03/01 10:27:39;;;;;;;11.17;10.00;;;17.30;67.70;;;;;;5026633;28;20536;-94
2023/03/01 10:30:15;;;;;;;12.87;9.93;;;18.10;67.20;;;;;;5028277;28;20449;-94
2023/03/01 10:32:43;;;;;;;11.50;9.60;;;18.30;66.50;;;;;;5031003;28;20492;-95
2023/03/01 10:35:18;;;;;;;17.53;10.03;;;18.70;66.20;;;;;;5035601;28;20521;-94
2023/03/01 10:38:03;;;;;;;10.83;8.90;;;18.70;65.80;;;;;;5068272;27;20958;-95
2023/03/01 10:40:29;;;;;;;10.73;9.03;;;17.90;65.80;;;;;;5024095;28;20466;-95
2023/03/01 10:43:00;;;;;;;12.80;10.37;;;18.30;65.50;;;;;;5017376;28;20497;-95
2023/03/01 10:45:37;;;;;;;12.10;9.37;;;18.80;65.00;;;;;;5016518;28;20449;-95
2023/03/01 10:48:14;;;;;;;10.67;9.23;;;19.10;64.80;;;;;;5016675;28;20437;-96
2023/03/01 10:50:42;;;;;;;12.40;9.63;;;19.10;64.20;;;;;;5017064;28;20454;-95
2023/03/01 10:53:30;;;;;;;11.17;9.77;;;19.40;64.90;;;;;;5016580;28;20462;-95
2023/03/01 10:56:04;;;;;;;11.13;10.00;;;19.70;63.30;;;;;;5017013;28;20469;-96
2023/03/01 10:58:32;;;;;;;10.60;9.40;;;19.90;62.70;;;;;;5017355;28;20438;-96
2023/03/01 11:01:01;;;;;;;12.60;10.47;;;20.10;62.90;;;;;;5016835;28;20490;-95
2023/03/01 11:03:31;;;;;;;11.70;9.47;;;20.60;62.70;;;;;;5016892;28;20474;-95
2023/03/01 11:06:23;;;;;;;10.40;8.77;;;20.60;63.00;;;;;;5016875;28;20447;-96
2023/03/01 11:08:53;;;;;;;11.20;9.17;;;20.60;62.00;;;;;;5017316;28;20446;-95
2023/03/01 11:11:33;;;;;;;12.10;9.93;;;20.10;61.30;;;;;;5006214;22;20493;-74
2023/03/01 11:14:03;;;;;;;11.90;9.70;;;19.50;62.80;;;;;;4988949;28;21020;-75
2023/03/01 11:16:33;;;;;;;10.97;9.53;;;19.30;63.30;;;;;;4989194;28;20454;-74
2023/03/01 11:19:04;;;;;;;11.43;9.60;;;19.80;62.80;;;;;;4969790;28;20848;-74
2023/03/01 11:21:35;;;;;;;12.33;9.43;;;20.00;62.80;;;;;;4969928;28;20463;-74
2023/03/01 11:24:05;;;;;;;14.73;10.30;;;20.10;62.30;;;;;;4969078;28;20471;-75
2023/03/01 11:26:35;;;;;;;11.30;10.03;;;20.40;61.70;;;;;;4969684;28;20463;-75
2023/03/01 11:29:07;;;;;;;15.30;10.33;;;20.70;60.80;;;;;;4969239;28;20471;-74
2023/03/01 11:31:35;;;;;;;12.40;10.40;;;21.40;60.10;;;;;;4969639;28;20474;-74
2023/03/01 11:34:08;;;;;;;13.60;9.83;;;21.00;59.90;;;;;;4968584;28;20483;-74
2023/03/01 11:36:41;;;;;;;12.63;10.23;;;20.70;60.50;;;;;;4968880;28;20463;-73
2023/03/01 11:39:26;;;;;;;11.57;9.83;;;20.60;60.30;;;;;;4968241;28;20528;-73
2023/03/01 11:42:03;;;;;;;11.13;9.03;;;20.70;61.90;;;;;;4969577;28;20467;-72
2023/03/01 11:44:35;;;;;;;11.10;10.00;;;20.50;59.50;;;;;;4962335;28;20871;-72
2023/03/01 11:47:17;;;;;;;12.33;9.50;;;20.60;60.40;;;;;;4969386;28;21024;-73
2023/03/01 11:50:04;;;;;;;13.13;10.03;;;20.10;60.10;;;;;;4968822;28;20488;-73
2023/03/01 11:52:49;;;;;;;13.40;10.07;;;20.00;60.60;;;;;;4968797;28;20459;-72
2023/03/01 11:55:47;;;;;;;11.03;9.87;;;19.50;60.20;;;;;;4972905;28;20467;-72
2023/03/01 11:58:28;;;;;;;11.13;9.00;;;19.60;61.10;;;;;;4968751;28;21097;-71
2023/03/01 12:01:16;;;;;;;10.70;9.20;;;19.90;60.40;;;;;;4968561;28;20467;-72
2023/03/01 12:04:10;;;;;;;11.60;9.30;;;20.50;60.20;;;;;;4968180;28;20464;-72
2023/03/01 12:06:47;;;;;;;12.80;9.90;;;20.30;59.60;;;;;;4968493;28;20463;-72
2023/03/01 12:09:31;;;;;;;9.47;7.93;;;19.10;60.80;;;;;;4968520;28;20469;-72
2023/03/01 12:12:38;;;;;;;11.90;8.80;;;19.50;61.60;;;;;;4968233;28;20467;-72
2023/03/01 12:15:29;;;;;;;12.70;9.90;;;20.20;61.00;;;;;;4970854;28;20471;-72
2023/03/01 12:18:24;;;;;;;10.93;9.70;;;20.00;60.60;;;;;;4966200;28;20487;-71
2023/03/01 12:21:00;;;;;;;10.63;9.47;;;19.60;60.70;;;;;;4969107;28;20471;-72
2023/03/01 12:23:57;;;;;;;9.80;8.80;;;20.00;60.40;;;;;;4967791;28;20466;-71
2023/03/01 12:26:30;;;;;;;11.30;9.60;;;20.20;60.10;;;;;;4970514;28;20520;-71
2023/03/01 12:29:09;;;;;;;10.40;9.17;;;20.50;60.00;;;;;;4968135;28;20483;-72
2023/03/01 12:32:12;;;;;;;10.43;9.27;;;20.10;59.80;;;;;;4967564;28;20459;-72
2023/03/01 12:35:01;;;;;;;10.27;8.87;;;19.60;60.50;;;;;;4968082;28;20479;-73
2023/03/01 12:37:43;;;;;;;10.83;9.13;;;20.10;59.60;;;;;;4968531;28;20942;-71
2023/03/01 12:40:34;;;;;;;12.10;8.47;;;20.60;59.90;;;;;;4967940;28;20468;-71
2023/03/01 12:43:13;;;;;;;11.23;9.10;;;20.70;60.50;;;;;;4967849;28;20459;-72
2023/03/01 12:45:52;;;;;;;11.90;9.00;;;20.80;59.90;;;;;;4968923;28;20467;-72
2023/03/01 12:48:31;;;;;;;9.47;8.43;;;20.70;60.90;;;;;;4967906;28;20493;-72
2023/03/01 12:51:04;;;;;;;11.70;9.30;;;20.90;59.90;;;;;;4967984;28;20577;-72
2023/03/01 12:53:35;;;;;;;12.53;9.17;;;21.20;59.80;;;;;;4967863;28;20487;-71